Augusta/Daniel Field, Georgia
Current Conditions -  °F | °C
As of 4:53 PM on Saturday 25 Oct 2014 (Local Time) from KDNL Reporting Station
Clear Clear  
Wind Chill: 24°   Ceiling: Unl
Heat Index: 24°   Visibility: 10mi
Dew Point:   Wind: 3mph
Humidity: 23%   Direction: NA
Pressure: 29.97"   Gusts: NA
Location:  33.47°N, 82.03°W
Report Text: KDNL 252053Z AUTO VRB03KT 10SM CLR 24/02 A2997 RMK AO2 SLP146 T02440022 56013 $
Loading
Personal Weather Stations






























Interactive Weather Map
Tropical Storm Tracking
New forecast layout! Learn more

10-Day Weather Forecast

Advertisements
Track Severe Weather on mobile